createdAt,value
2018-07-02T00:00:00.383Z,2.33
2018-07-02T00:02:28.500Z,2.50
2018-07-02T00:04:57.278Z,2.50
2018-07-02T00:07:26.512Z,2.60
2018-07-02T00:09:55.038Z,2.50
2018-07-02T00:12:23.968Z,2.70
2018-07-02T00:14:53.124Z,2.70
2018-07-02T00:17:21.122Z,2.52
2018-07-02T00:19:49.047Z,2.30
2018-07-02T00:22:17.651Z,2.10
2018-07-02T00:24:46.159Z,2.20
2018-07-02T00:27:14.562Z,2.30
2018-07-02T00:29:42.897Z,2.40
2018-07-02T00:32:11.922Z,2.55
2018-07-02T00:34:40.798Z,2.60
2018-07-02T00:37:09.250Z,2.40
2018-07-02T00:39:37.776Z,2.50
2018-07-02T00:42:06.750Z,2.50
2018-07-02T00:44:34.988Z,2.47
2018-07-02T00:47:03.501Z,2.60
2018-07-02T00:49:31.774Z,2.27
2018-07-02T00:52:00.736Z,2.30
2018-07-02T00:54:28.685Z,2.40
2018-07-02T00:56:57.187Z,2.20
2018-07-02T00:59:25.484Z,2.25
2018-07-02T01:01:53.869Z,2.60
2018-07-02T01:04:22.489Z,2.25
2018-07-02T01:06:50.781Z,2.15
2018-07-02T01:09:19.231Z,2.65
2018-07-02T01:11:47.581Z,2.40
2018-07-02T01:14:16.599Z,2.62
2018-07-02T01:16:45.779Z,2.70
2018-07-02T01:19:14.797Z,2.70
2018-07-02T01:21:43.032Z,2.27
2018-07-02T01:24:11.421Z,2.30
2018-07-02T01:26:39.711Z,2.50
2018-07-02T01:29:07.918Z,2.20
2018-07-02T01:31:36.209Z,2.80
2018-07-02T01:34:04.800Z,2.42
2018-07-02T01:36:33.318Z,2.50
2018-07-02T01:39:01.822Z,2.40
2018-07-02T01:41:30.098Z,2.50
2018-07-02T01:43:58.500Z,2.75
2018-07-02T01:46:26.917Z,2.10
2018-07-02T01:48:55.215Z,2.25
2018-07-02T01:51:23.493Z,2.70
2018-07-02T01:53:51.913Z,2.52
2018-07-02T01:56:20.321Z,2.50
2018-07-02T01:58:49.329Z,3.00
2018-07-02T02:01:17.723Z,2.67
2018-07-02T02:03:46.007Z,2.50
2018-07-02T02:06:14.315Z,2.60
2018-07-02T02:08:42.924Z,2.75
2018-07-02T02:11:12.438Z,2.50
2018-07-02T02:13:42.360Z,2.63
2018-07-02T02:16:12.217Z,2.80
2018-07-02T02:18:41.984Z,2.90
2018-07-02T02:21:11.681Z,2.90
2018-07-02T02:23:41.261Z,2.70
2018-07-02T02:26:09.858Z,3.50
2018-07-02T02:28:39.778Z,2.67
2018-07-02T02:31:08.876Z,3.00
2018-07-02T02:33:39.034Z,3.00
2018-07-02T02:36:12.686Z,3.10
2018-07-02T02:38:43.090Z,3.10
2018-07-02T02:41:12.772Z,2.90
2018-07-02T02:43:42.557Z,3.08
2018-07-02T02:46:12.158Z,3.00
2018-07-02T02:48:41.830Z,3.40
2018-07-02T02:51:11.220Z,3.37
2018-07-02T02:53:41.133Z,3.50
2018-07-02T02:56:10.797Z,3.00
2018-07-02T02:58:40.415Z,3.20
2018-07-02T03:01:09.983Z,4.40
2018-07-02T03:03:40.343Z,3.40
2018-07-02T03:06:09.908Z,3.37
2018-07-02T03:08:39.721Z,3.12
2018-07-02T03:11:09.813Z,3.10
2018-07-02T03:13:40.135Z,7.28
2018-07-02T03:16:09.785Z,3.20
2018-07-02T03:18:39.632Z,3.00
2018-07-02T03:23:44.038Z,2.90
2018-07-02T03:26:13.166Z,3.20
2018-07-02T03:28:42.293Z,2.90
2018-07-02T03:31:11.729Z,3.30
2018-07-02T03:33:41.398Z,3.00
2018-07-02T03:36:10.785Z,3.35
2018-07-02T03:38:39.956Z,2.83
2018-07-02T03:41:09.803Z,4.00
2018-07-02T03:43:39.430Z,5.28
2018-07-02T03:46:09.314Z,4.80
2018-07-02T03:48:38.890Z,3.20
2018-07-02T03:51:12.304Z,2.95
2018-07-02T03:53:41.796Z,3.12
2018-07-02T03:56:16.651Z,3.40
2018-07-02T03:58:46.370Z,3.40
2018-07-02T04:01:16.363Z,3.05
2018-07-02T04:03:45.763Z,3.60
2018-07-02T04:06:15.347Z,4.10
2018-07-02T04:08:44.935Z,3.23
2018-07-02T04:11:13.589Z,3.12
2018-07-02T04:13:43.405Z,3.25
2018-07-02T04:16:13.843Z,2.47
2018-07-02T04:18:44.085Z,2.30
2018-07-02T04:21:13.820Z,2.20
2018-07-02T04:23:44.192Z,2.30
2018-07-02T04:26:13.873Z,2.17
2018-07-02T04:28:43.044Z,2.30
2018-07-02T04:31:11.595Z,1.80
2018-07-02T04:33:40.667Z,2.10
2018-07-02T04:36:08.973Z,2.42
2018-07-02T04:38:37.236Z,2.65
2018-07-02T04:41:05.694Z,2.33
2018-07-02T04:43:34.089Z,3.47
2018-07-02T04:46:03.128Z,1.80
2018-07-02T04:48:32.041Z,3.95
2018-07-02T04:51:00.319Z,1.80
2018-07-02T04:53:28.732Z,3.10
2018-07-02T04:55:56.992Z,2.95
2018-07-02T04:58:25.021Z,1.73
2018-07-02T05:00:53.289Z,3.60
2018-07-02T05:03:21.995Z,3.80
2018-07-02T05:05:50.450Z,3.60
2018-07-02T05:08:18.825Z,2.12
2018-07-02T05:10:47.153Z,6.40
2018-07-02T05:13:15.520Z,1.87
2018-07-02T05:15:43.831Z,2.00
2018-07-02T05:18:12.135Z,2.00
2018-07-02T05:20:40.498Z,1.30
2018-07-02T05:23:08.581Z,2.02
2018-07-02T05:25:36.869Z,1.37
2018-07-02T05:28:05.189Z,2.07
2018-07-02T05:30:33.396Z,1.40
2018-07-02T05:33:01.895Z,2.30
2018-07-02T05:35:30.292Z,1.75
2018-07-02T05:37:58.164Z,1.70
2018-07-02T05:40:26.478Z,2.40
2018-07-02T05:42:54.776Z,1.67
2018-07-02T05:45:22.847Z,1.40
2018-07-02T05:47:51.035Z,1.40
2018-07-02T05:50:19.355Z,2.17
2018-07-02T05:52:47.333Z,2.00
2018-07-02T05:55:15.747Z,2.02
2018-07-02T05:57:43.717Z,2.10
2018-07-02T06:00:12.805Z,1.30
2018-07-02T06:02:41.036Z,1.50
2018-07-02T06:05:09.147Z,1.90
2018-07-02T06:07:37.463Z,1.20
2018-07-02T06:10:07.009Z,3.20
2018-07-02T06:12:35.453Z,1.50
2018-07-02T06:15:03.645Z,1.30
2018-07-02T06:17:31.758Z,2.47
2018-07-02T06:19:59.852Z,3.02
2018-07-02T06:22:28.141Z,1.85
2018-07-02T06:24:56.737Z,1.90
2018-07-02T06:27:25.157Z,3.65
2018-07-02T06:29:53.226Z,1.75
2018-07-02T06:32:21.626Z,2.15
2018-07-02T06:34:49.830Z,1.90
2018-07-02T06:37:18.512Z,2.15
2018-07-02T06:39:46.728Z,1.70
2018-07-02T06:42:15.147Z,1.60
2018-07-02T06:44:43.237Z,1.75
2018-07-02T06:47:11.850Z,1.90
2018-07-02T06:49:39.811Z,1.60
2018-07-02T06:52:07.759Z,1.60
2018-07-02T06:54:35.685Z,1.62
2018-07-02T06:57:03.758Z,1.10
2018-07-02T06:59:31.743Z,0.80
2018-07-02T07:01:59.725Z,0.60
2018-07-02T07:04:27.647Z,0.88
2018-07-02T07:06:55.655Z,1.10
2018-07-02T07:09:23.411Z,0.70
2018-07-02T07:11:51.367Z,0.88
2018-07-02T07:14:19.291Z,0.80
2018-07-02T07:16:47.213Z,0.60
2018-07-02T07:19:15.016Z,0.70
2018-07-02T07:21:42.968Z,0.90
2018-07-02T07:24:11.146Z,0.85
2018-07-02T07:26:39.058Z,0.93
2018-07-02T07:29:07.052Z,0.70
2018-07-02T07:31:35.596Z,0.75
2018-07-02T07:34:03.616Z,1.30
2018-07-02T07:36:31.660Z,0.70
2018-07-02T07:38:59.596Z,0.70
2018-07-02T07:41:27.620Z,1.10
2018-07-02T07:43:55.405Z,0.80
2018-07-02T07:46:23.439Z,1.00
2018-07-02T07:48:51.528Z,0.80
2018-07-02T07:51:19.691Z,1.12
2018-07-02T07:53:47.784Z,0.75
2018-07-02T07:56:15.749Z,1.75
2018-07-02T07:58:44.157Z,1.60
2018-07-02T08:01:12.477Z,0.70
2018-07-02T08:03:40.601Z,0.93
2018-07-02T08:06:08.959Z,1.50
2018-07-02T08:08:37.461Z,0.62
2018-07-02T08:11:05.571Z,1.30
2018-07-02T08:13:33.953Z,2.85
2018-07-02T08:16:02.445Z,1.10
2018-07-02T08:18:30.846Z,0.73
2018-07-02T08:20:59.110Z,0.85
2018-07-02T08:23:27.348Z,0.70
2018-07-02T08:25:55.320Z,1.42
2018-07-02T08:28:23.628Z,1.80
2018-07-02T08:30:51.776Z,1.57
2018-07-02T08:33:20.222Z,2.95
2018-07-02T08:35:48.607Z,1.30
2018-07-02T08:38:16.999Z,1.10
2018-07-02T08:40:45.325Z,0.80
2018-07-02T08:43:13.200Z,1.20
2018-07-02T08:45:41.592Z,1.10
2018-07-02T08:48:09.907Z,1.43
2018-07-02T08:50:38.015Z,1.70
2018-07-02T08:53:06.282Z,0.80
2018-07-02T08:55:34.610Z,1.80
2018-07-02T08:58:03.098Z,1.67
2018-07-02T09:00:31.920Z,1.35
2018-07-02T09:03:00.422Z,0.82
2018-07-02T09:05:28.830Z,1.20
2018-07-02T09:07:57.412Z,0.80
2018-07-02T09:10:25.676Z,1.87
2018-07-02T09:12:54.110Z,1.30
2018-07-02T09:15:22.623Z,2.02
2018-07-02T09:17:51.026Z,1.60
2018-07-02T09:20:19.449Z,1.52
2018-07-02T09:22:47.850Z,1.27
2018-07-02T09:25:16.342Z,0.98
2018-07-02T09:27:44.648Z,1.72
2018-07-02T09:30:13.112Z,1.57
2018-07-02T09:32:41.705Z,1.20
2018-07-02T09:35:10.337Z,1.60
2018-07-02T09:37:38.812Z,2.27
2018-07-02T09:40:07.315Z,2.22
2018-07-02T09:42:35.712Z,2.25
2018-07-02T09:45:04.105Z,2.55
2018-07-02T09:47:32.745Z,2.50
2018-07-02T09:50:01.899Z,1.00
2018-07-02T09:52:30.152Z,0.95
2018-07-02T09:54:58.432Z,1.27
2018-07-02T09:57:26.707Z,1.50
2018-07-02T09:59:55.152Z,1.80
2018-07-02T10:02:23.418Z,0.80
2018-07-02T10:04:52.036Z,2.00
2018-07-02T10:07:20.667Z,1.20
2018-07-02T10:09:49.154Z,1.00
2018-07-02T10:12:17.361Z,0.90
2018-07-02T10:14:45.546Z,1.20
2018-07-02T10:17:13.944Z,0.70
2018-07-02T10:19:42.177Z,2.40
2018-07-02T10:22:10.317Z,1.82
2018-07-02T10:24:38.733Z,1.00
2018-07-02T10:27:07.127Z,1.02
2018-07-02T10:29:35.225Z,1.00
2018-07-02T10:32:03.464Z,1.85
2018-07-02T10:34:31.915Z,2.00
2018-07-02T10:37:00.016Z,1.10
2018-07-02T10:39:28.519Z,1.22
2018-07-02T10:41:56.920Z,0.85
2018-07-02T10:44:25.113Z,1.00
2018-07-02T10:46:53.653Z,1.10
2018-07-02T10:49:22.014Z,0.80
2018-07-02T10:51:50.567Z,1.20
2018-07-02T10:54:19.017Z,1.03
2018-07-02T10:56:47.447Z,1.05
2018-07-02T10:59:16.925Z,1.00
2018-07-02T11:01:45.345Z,2.20
2018-07-02T11:04:13.748Z,1.30
2018-07-02T11:06:42.139Z,0.70
2018-07-02T11:09:10.653Z,1.20
2018-07-02T11:11:38.936Z,1.50
2018-07-02T11:14:07.236Z,0.90
2018-07-02T11:16:35.431Z,1.30
2018-07-02T11:19:03.820Z,1.30
2018-07-02T11:21:32.005Z,1.60
2018-07-02T11:24:00.546Z,1.40
2018-07-02T11:26:29.014Z,1.70
2018-07-02T11:28:57.040Z,1.32
2018-07-02T11:31:25.470Z,1.10
2018-07-02T11:33:53.678Z,0.90
2018-07-02T11:36:21.848Z,1.40
2018-07-02T11:38:49.988Z,0.80
2018-07-02T11:41:18.558Z,1.00
2018-07-02T11:43:46.886Z,0.95
2018-07-02T11:46:15.205Z,1.32
2018-07-02T11:48:43.690Z,0.70
2018-07-02T11:51:12.596Z,1.23
2018-07-02T11:53:41.035Z,0.98
2018-07-02T11:57:53.935Z,3.10
2018-07-02T12:00:22.833Z,2.00
2018-07-02T12:02:51.120Z,1.20
2018-07-02T12:05:19.317Z,1.20
2018-07-02T12:07:47.605Z,1.20
2018-07-02T12:10:15.918Z,0.80
2018-07-02T12:12:44.955Z,2.43
2018-07-02T12:15:12.703Z,3.20
2018-07-02T12:17:40.935Z,1.05
2018-07-02T12:20:09.422Z,1.30
2018-07-02T12:22:37.718Z,1.90
2018-07-02T12:25:06.052Z,1.05
2018-07-02T12:27:34.638Z,0.80
2018-07-02T12:30:03.958Z,1.67
2018-07-02T12:32:32.352Z,1.62
2018-07-02T12:35:00.871Z,0.93
2018-07-02T12:37:29.146Z,1.40
2018-07-02T12:39:57.247Z,1.70
2018-07-02T12:42:26.213Z,1.17
2018-07-02T12:44:54.428Z,0.90
2018-07-02T12:47:22.837Z,1.35
2018-07-02T12:49:51.098Z,1.30
2018-07-02T12:52:19.401Z,1.20
2018-07-02T12:54:47.746Z,1.00
2018-07-02T12:57:16.243Z,1.30
2018-07-02T12:59:44.730Z,1.02
2018-07-02T13:02:13.183Z,0.90
2018-07-02T13:04:41.563Z,1.92
2018-07-02T13:07:10.055Z,0.95
2018-07-02T13:09:38.464Z,1.00
2018-07-02T13:12:06.849Z,1.30
2018-07-02T13:14:35.244Z,1.40
2018-07-02T13:17:03.442Z,2.50
2018-07-02T13:19:31.846Z,2.93
2018-07-02T13:22:00.127Z,0.80
2018-07-02T13:24:28.555Z,1.62
2018-07-02T13:26:56.824Z,2.00
2018-07-02T13:29:25.773Z,0.80
2018-07-02T13:31:54.225Z,2.00
2018-07-02T13:34:22.813Z,1.70
2018-07-02T13:36:51.358Z,1.20
2018-07-02T13:39:19.950Z,1.60
2018-07-02T13:41:48.569Z,2.00
2018-07-02T13:44:17.102Z,1.67
2018-07-02T13:46:45.361Z,1.20
2018-07-02T13:49:13.996Z,1.72
2018-07-02T13:51:42.447Z,1.35
2018-07-02T13:54:10.888Z,2.42
2018-07-02T13:56:39.110Z,1.00
2018-07-02T13:59:07.466Z,2.00
2018-07-02T14:01:35.730Z,1.50
2018-07-02T14:04:03.966Z,1.98
2018-07-02T14:06:32.162Z,1.70
2018-07-02T14:09:00.626Z,1.10
2018-07-02T14:11:29.034Z,1.42
2018-07-02T14:13:57.250Z,1.20
2018-07-02T14:16:25.445Z,1.20
2018-07-02T14:18:53.742Z,1.00
2018-07-02T14:21:22.202Z,1.00
2018-07-02T14:23:50.641Z,2.70
2018-07-02T14:26:18.958Z,1.80
2018-07-02T14:28:47.631Z,1.00
2018-07-02T14:31:15.717Z,1.80
2018-07-02T14:33:44.149Z,2.20
2018-07-02T14:36:12.612Z,2.45
2018-07-02T14:38:40.836Z,2.37
2018-07-02T14:41:09.716Z,1.50
2018-07-02T14:43:38.237Z,1.67
2018-07-02T14:46:06.224Z,2.00
2018-07-02T14:48:34.743Z,1.90
2018-07-02T14:51:03.070Z,1.30
2018-07-02T14:53:31.650Z,1.30
2018-07-02T14:55:59.908Z,1.20
2018-07-02T14:58:28.495Z,1.40
2018-07-02T15:00:56.958Z,2.30
2018-07-02T15:03:25.316Z,1.70
2018-07-02T15:05:53.670Z,1.33
2018-07-02T15:08:22.143Z,1.80
2018-07-02T15:10:50.623Z,1.67
2018-07-02T15:13:18.921Z,1.70
2018-07-02T15:15:47.444Z,1.80
2018-07-02T15:18:15.817Z,2.22
2018-07-02T15:20:44.048Z,1.40
2018-07-02T15:23:12.819Z,2.60
2018-07-02T15:25:41.333Z,1.15
2018-07-02T15:28:09.441Z,1.17
2018-07-02T15:30:38.027Z,1.40
2018-07-02T15:33:06.538Z,2.10
2018-07-02T15:35:34.850Z,2.00
2018-07-02T15:38:03.113Z,2.27
2018-07-02T15:40:31.748Z,1.90
2018-07-02T15:43:00.125Z,1.60
2018-07-02T15:45:28.222Z,2.50
2018-07-02T15:47:56.354Z,1.40
2018-07-02T15:50:25.111Z,2.20
2018-07-02T15:52:54.216Z,1.30
2018-07-02T15:55:22.457Z,2.52
2018-07-02T15:57:50.531Z,1.25
2018-07-02T16:00:19.640Z,1.62
2018-07-02T16:02:48.231Z,1.70
2018-07-02T16:05:16.566Z,0.93
2018-07-02T16:07:45.059Z,1.17
2018-07-02T16:10:13.117Z,2.00
2018-07-02T16:12:41.663Z,1.45
2018-07-02T16:15:10.148Z,1.60
2018-07-02T16:17:38.359Z,1.70
2018-07-02T16:20:06.648Z,1.90
2018-07-02T16:22:35.461Z,1.95
2018-07-02T16:25:03.948Z,2.02
2018-07-02T16:27:32.365Z,1.00
2018-07-02T16:30:00.473Z,1.30
2018-07-02T16:32:28.651Z,0.88
2018-07-02T16:34:58.386Z,1.40
2018-07-02T16:37:27.317Z,1.90
2018-07-02T16:39:55.897Z,1.37
2018-07-02T16:42:24.270Z,1.50
2018-07-02T16:44:53.002Z,1.65
2018-07-02T16:47:21.209Z,2.00
2018-07-02T16:49:49.466Z,1.65
2018-07-02T16:52:18.013Z,1.00
2018-07-02T16:54:46.421Z,2.50
2018-07-02T16:57:14.692Z,1.00
2018-07-02T16:59:43.111Z,1.57
2018-07-02T17:02:11.680Z,1.22
2018-07-02T17:04:39.632Z,1.30
2018-07-02T17:07:07.882Z,1.40
2018-07-02T17:09:36.092Z,1.00
2018-07-02T17:12:04.598Z,1.40
2018-07-02T17:14:33.597Z,0.88
2018-07-02T17:17:02.104Z,1.50
2018-07-02T17:19:30.575Z,1.32
2018-07-02T17:21:59.099Z,1.10
2018-07-02T17:24:27.397Z,1.33
2018-07-02T17:26:55.794Z,1.27
2018-07-02T17:29:23.991Z,1.00
2018-07-02T17:33:55.651Z,1.00
2018-07-02T17:36:24.031Z,0.82
2018-07-02T17:38:52.513Z,1.42
2018-07-02T17:41:21.043Z,0.90
2018-07-02T17:43:49.674Z,1.40
2018-07-02T17:46:18.243Z,1.07
2018-07-02T17:48:46.523Z,1.00
2018-07-02T17:51:14.743Z,1.70
2018-07-02T17:53:43.134Z,1.20
2018-07-02T17:56:11.385Z,1.05
2018-07-02T17:58:39.935Z,2.70
2018-07-02T18:01:08.472Z,1.10
2018-07-02T18:03:36.922Z,1.80
2018-07-02T18:06:05.035Z,2.47
2018-07-02T18:08:33.346Z,1.85
2018-07-02T18:11:01.841Z,1.37
2018-07-02T18:13:30.721Z,1.40
2018-07-02T18:16:00.396Z,1.50
2018-07-02T18:18:28.883Z,1.27
2018-07-02T18:20:57.274Z,3.20
2018-07-02T18:23:25.695Z,1.55
2018-07-02T18:25:53.999Z,1.27
2018-07-02T18:28:22.485Z,2.10
2018-07-02T18:30:50.891Z,1.10
2018-07-02T18:33:19.830Z,1.20
2018-07-02T18:35:48.220Z,2.07
2018-07-02T18:38:16.673Z,1.60
2018-07-02T18:40:45.602Z,3.65
2018-07-02T18:43:13.984Z,3.30
2018-07-02T18:45:42.516Z,1.52
2018-07-02T18:48:10.831Z,1.70
2018-07-02T18:50:39.297Z,1.02
2018-07-02T18:53:07.838Z,1.65
2018-07-02T18:55:36.678Z,5.65
2018-07-02T18:58:05.212Z,3.45
2018-07-02T19:00:33.846Z,1.95
2018-07-02T19:03:02.232Z,3.58
2018-07-02T19:05:30.631Z,5.35
2018-07-02T19:07:58.883Z,2.87
2018-07-02T19:10:27.302Z,3.22
2018-07-02T19:12:55.805Z,2.20
2018-07-02T19:15:24.189Z,2.02
2018-07-02T19:17:52.622Z,2.10
2018-07-02T19:20:21.183Z,2.77
2018-07-02T19:22:49.636Z,1.50
2018-07-02T19:25:18.218Z,1.80
2018-07-02T19:27:46.598Z,1.20
2018-07-02T19:30:14.725Z,1.95
2018-07-02T19:32:43.580Z,1.10
2018-07-02T19:35:12.081Z,2.27
2018-07-02T19:37:40.732Z,2.50
2018-07-02T19:40:09.127Z,1.98
2018-07-02T19:42:37.526Z,2.50
2018-07-02T19:45:05.913Z,2.67
2018-07-02T19:47:34.325Z,3.10
2018-07-02T19:50:02.824Z,5.40
2018-07-02T19:52:31.211Z,4.63
2018-07-02T19:54:59.546Z,4.65
2018-07-02T19:57:28.026Z,4.90
2018-07-02T19:59:56.331Z,3.62
2018-07-02T20:02:24.726Z,3.20
2018-07-02T20:04:53.336Z,3.90
2018-07-02T20:07:21.728Z,4.70
2018-07-02T20:09:50.123Z,3.83
2018-07-02T20:12:18.706Z,2.50
2018-07-02T20:14:47.146Z,3.55
2018-07-02T20:17:15.719Z,2.70
2018-07-02T20:19:44.017Z,2.92
2018-07-02T20:22:12.637Z,2.50
2018-07-02T20:24:41.132Z,4.30
2018-07-02T20:27:09.771Z,4.05
2018-07-02T20:29:38.222Z,2.60
2018-07-02T20:32:06.737Z,3.00
2018-07-02T20:34:34.910Z,4.05
2018-07-02T20:37:03.609Z,3.30
2018-07-02T20:39:32.752Z,2.60
2018-07-02T20:42:00.840Z,2.95
2018-07-02T20:44:29.159Z,3.40
2018-07-02T20:46:57.542Z,3.50
2018-07-02T20:49:25.748Z,3.10
2018-07-02T20:51:53.944Z,2.83
2018-07-02T20:54:22.324Z,2.92
2018-07-02T20:56:50.548Z,2.70
2018-07-02T20:59:18.863Z,3.77
2018-07-02T21:01:47.211Z,2.30
2018-07-02T21:04:15.760Z,3.87
2018-07-02T21:06:44.818Z,3.45
2018-07-02T21:09:13.253Z,2.95
2018-07-02T21:11:41.554Z,2.30
2018-07-02T21:14:10.065Z,2.10
2018-07-02T21:16:38.557Z,2.30
2018-07-02T21:19:06.725Z,2.30
2018-07-02T21:21:35.037Z,2.70
2018-07-02T21:24:03.106Z,2.00
2018-07-02T21:26:31.672Z,2.10
2018-07-02T21:29:00.139Z,3.30
2018-07-02T21:31:28.535Z,2.02
2018-07-02T21:33:56.922Z,2.10
2018-07-02T21:36:25.106Z,2.92
2018-07-02T21:38:53.671Z,2.00
2018-07-02T21:41:22.121Z,2.10
2018-07-02T21:43:51.040Z,2.52
2018-07-02T21:46:19.135Z,2.40
2018-07-02T21:48:47.122Z,2.27
2018-07-02T21:51:15.230Z,2.77
2018-07-02T21:53:43.391Z,2.70
2018-07-02T21:56:11.738Z,2.50
2018-07-02T21:58:40.331Z,2.90
2018-07-02T22:01:09.067Z,2.37
2018-07-02T22:03:37.412Z,2.30
2018-07-02T22:06:05.952Z,2.77
2018-07-02T22:08:34.537Z,2.40
2018-07-02T22:11:02.810Z,2.20
2018-07-02T22:13:31.425Z,2.70
2018-07-02T22:15:59.631Z,3.00
2018-07-02T22:18:27.857Z,2.02
2018-07-02T22:20:56.222Z,2.58
2018-07-02T22:23:24.814Z,2.83
2018-07-02T22:25:53.025Z,3.30
2018-07-02T22:28:21.247Z,2.35
2018-07-02T22:30:49.716Z,3.10
2018-07-02T22:33:17.678Z,2.42
2018-07-02T22:35:45.936Z,2.30
2018-07-02T22:38:14.164Z,2.23
2018-07-02T22:40:43.207Z,2.25
2018-07-02T22:43:11.345Z,2.50
2018-07-02T22:45:39.811Z,2.37
2018-07-02T22:48:08.301Z,2.98
2018-07-02T22:50:36.698Z,2.30
2018-07-02T22:53:04.920Z,2.30
2018-07-02T22:56:09.718Z,2.50
2018-07-02T22:58:38.120Z,2.58
2018-07-02T23:01:06.537Z,3.10
2018-07-02T23:03:34.897Z,2.58
2018-07-02T23:06:03.109Z,2.60
2018-07-02T23:08:31.393Z,2.25
2018-07-02T23:10:59.388Z,2.50
2018-07-02T23:13:27.895Z,2.90
2018-07-02T23:16:03.871Z,2.20
2018-07-02T23:18:33.291Z,2.40
2018-07-02T23:21:01.394Z,2.33
2018-07-02T23:23:30.760Z,2.20
2018-07-02T23:25:59.204Z,2.10
2018-07-02T23:28:27.174Z,2.40
2018-07-02T23:30:55.678Z,2.42
2018-07-02T23:33:23.976Z,2.10
2018-07-02T23:35:52.524Z,1.80
2018-07-02T23:38:21.384Z,2.50
2018-07-02T23:40:49.993Z,2.52
2018-07-02T23:43:17.892Z,2.50
2018-07-02T23:45:45.841Z,2.10
2018-07-02T23:48:13.979Z,2.58
2018-07-02T23:50:41.945Z,2.15
2018-07-02T23:53:10.487Z,2.20
2018-07-02T23:55:38.956Z,2.55
2018-07-02T23:58:07.358Z,2.20
